createdAt,value
2022-10-23T00:00:58.876Z,33.20
2022-10-23T00:03:25.470Z,29.35
2022-10-23T00:05:52.049Z,29.77
2022-10-23T00:08:18.604Z,34.38
2022-10-23T00:10:45.370Z,33.88
2022-10-23T00:13:12.115Z,27.38
2022-10-23T00:15:38.870Z,23.83
2022-10-23T00:18:05.585Z,28.35
2022-10-23T00:20:36.434Z,26.70
2022-10-23T00:23:03.077Z,26.02
2022-10-23T00:25:29.693Z,23.90
2022-10-23T00:27:56.422Z,24.15
2022-10-23T00:30:23.172Z,27.00
2022-10-23T00:32:49.727Z,28.00
2022-10-23T00:35:16.432Z,29.23
2022-10-23T00:37:43.304Z,26.23
2022-10-23T00:40:10.524Z,20.48
2022-10-23T00:42:37.094Z,27.02
2022-10-23T00:45:25.666Z,27.65
2022-10-23T00:47:52.625Z,23.40
2022-10-23T00:50:19.324Z,29.45
2022-10-23T00:52:47.713Z,28.95
2022-10-23T00:55:14.934Z,26.42
2022-10-23T00:57:42.393Z,25.90
2022-10-23T01:00:11.854Z,23.75
2022-10-23T01:02:38.588Z,35.90
2022-10-23T01:05:05.488Z,27.92
2022-10-23T01:07:41.657Z,23.67
2022-10-23T01:10:17.500Z,26.38
2022-10-23T01:13:10.327Z,28.02
2022-10-23T01:15:52.538Z,22.67
2022-10-23T01:18:24.651Z,25.42
2022-10-23T01:20:53.565Z,25.38
2022-10-23T01:23:23.644Z,23.67
2022-10-23T01:25:59.569Z,28.85
2022-10-23T01:28:30.664Z,30.48
2022-10-23T01:30:58.420Z,26.52
2022-10-23T01:33:31.982Z,30.88
2022-10-23T01:36:04.122Z,25.00
2022-10-23T01:38:36.355Z,26.30
2022-10-23T01:41:07.465Z,25.70
2022-10-23T01:43:54.237Z,25.90
2022-10-23T01:46:20.818Z,34.28
2022-10-23T01:48:51.403Z,28.58
2022-10-23T01:51:18.554Z,27.17
2022-10-23T01:53:45.500Z,24.70
2022-10-23T01:56:13.672Z,25.77
2022-10-23T01:58:41.179Z,27.05
2022-10-23T02:01:07.916Z,25.40
2022-10-23T02:03:34.588Z,25.55
2022-10-23T02:06:01.212Z,31.15
2022-10-23T02:08:27.806Z,42.55
2022-10-23T02:11:00.777Z,39.47
2022-10-23T02:13:40.102Z,33.65
2022-10-23T02:16:10.574Z,36.83
2022-10-23T02:19:07.000Z,29.48
2022-10-23T02:22:33.715Z,31.88
2022-10-23T02:25:10.525Z,22.42
2022-10-23T02:27:45.812Z,26.60
2022-10-23T02:30:13.994Z,20.92
2022-10-23T02:32:42.773Z,32.92
2022-10-23T02:35:12.349Z,25.90
2022-10-23T02:37:39.065Z,26.10
2022-10-23T02:40:06.377Z,25.55
2022-10-23T02:42:36.784Z,26.17
2022-10-23T02:45:11.576Z,29.38
2022-10-23T02:47:46.895Z,25.63
2022-10-23T02:50:32.136Z,30.90
2022-10-23T02:53:02.522Z,33.20
2022-10-23T02:55:38.189Z,30.27
2022-10-23T02:58:12.266Z,25.25
2022-10-23T03:00:39.753Z,26.30
2022-10-23T03:03:11.956Z,35.00
2022-10-23T03:05:39.122Z,39.97
2022-10-23T03:08:06.611Z,42.03
2022-10-23T03:10:33.217Z,23.05
2022-10-23T03:12:59.858Z,35.58
2022-10-23T03:15:26.661Z,23.35
2022-10-23T03:17:53.295Z,20.42
2022-10-23T03:20:19.930Z,19.10
2022-10-23T03:22:46.621Z,21.25
2022-10-23T03:25:13.316Z,21.73
2022-10-23T03:27:39.940Z,21.35
2022-10-23T03:30:07.067Z,18.77
2022-10-23T03:32:33.785Z,19.75
2022-10-23T03:35:00.467Z,19.50
2022-10-23T03:37:27.194Z,18.70
2022-10-23T03:39:53.906Z,18.33
2022-10-23T03:42:20.607Z,17.83
2022-10-23T03:44:47.298Z,16.48
2022-10-23T03:47:14.194Z,19.48
2022-10-23T03:49:40.764Z,19.27
2022-10-23T03:52:07.649Z,17.15
2022-10-23T03:54:34.407Z,17.40
2022-10-23T03:57:01.176Z,19.80
2022-10-23T03:59:28.021Z,19.15
2022-10-23T04:01:54.943Z,20.77
2022-10-23T04:04:21.664Z,18.35
2022-10-23T04:06:48.250Z,19.13
2022-10-23T04:09:15.138Z,18.08
2022-10-23T04:11:41.887Z,19.35
2022-10-23T04:14:10.227Z,20.10
2022-10-23T04:16:36.807Z,21.83
2022-10-23T04:19:04.192Z,23.02
2022-10-23T04:21:30.926Z,20.27
2022-10-23T04:23:57.530Z,21.52
2022-10-23T04:26:24.135Z,18.25
2022-10-23T04:28:50.767Z,15.27
2022-10-23T04:31:17.433Z,17.73
2022-10-23T04:33:44.045Z,15.65
2022-10-23T04:36:10.679Z,14.52
2022-10-23T04:38:37.626Z,17.95
2022-10-23T04:41:04.268Z,16.35
2022-10-23T04:43:30.853Z,16.67
2022-10-23T04:45:57.450Z,18.90
2022-10-23T04:48:26.921Z,17.13
2022-10-23T04:51:00.016Z,16.77
2022-10-23T04:53:26.901Z,15.50
2022-10-23T04:55:54.587Z,17.23
2022-10-23T04:58:21.405Z,15.23
2022-10-23T05:00:48.279Z,17.95
2022-10-23T05:03:15.400Z,14.18
2022-10-23T05:05:42.343Z,13.32
2022-10-23T05:08:08.997Z,17.30
2022-10-23T05:10:35.603Z,14.95
2022-10-23T05:13:02.725Z,13.00
2022-10-23T05:15:29.378Z,15.80
2022-10-23T05:17:58.188Z,14.45
2022-10-23T05:20:26.671Z,13.68
2022-10-23T05:22:53.487Z,14.68
2022-10-23T05:25:20.048Z,17.95
2022-10-23T05:27:46.623Z,17.08
2022-10-23T05:30:13.557Z,16.63
2022-10-23T05:32:40.423Z,18.85
2022-10-23T05:35:09.018Z,20.40
2022-10-23T05:37:38.197Z,24.65
2022-10-23T05:40:05.225Z,34.58
2022-10-23T05:42:31.841Z,27.98
2022-10-23T05:44:58.468Z,22.15
2022-10-23T05:47:25.141Z,21.45
2022-10-23T05:49:51.753Z,22.83
2022-10-23T05:52:20.294Z,17.77
2022-10-23T05:54:46.870Z,19.63
2022-10-23T05:57:13.554Z,17.20
2022-10-23T05:59:40.190Z,18.05
2022-10-23T06:02:06.930Z,19.00
2022-10-23T06:04:35.283Z,21.30
2022-10-23T06:07:02.748Z,19.30
2022-10-23T06:09:29.455Z,21.75
2022-10-23T06:11:56.134Z,18.50
2022-10-23T06:14:22.760Z,21.33
2022-10-23T06:16:49.413Z,23.77
2022-10-23T06:19:15.985Z,23.52
2022-10-23T06:21:42.642Z,21.25
2022-10-23T06:24:09.301Z,20.75
2022-10-23T06:26:35.980Z,19.88
2022-10-23T06:29:02.567Z,20.60
2022-10-23T06:31:29.146Z,17.48
2022-10-23T06:33:56.362Z,17.77
2022-10-23T06:36:23.015Z,16.88
2022-10-23T06:38:49.879Z,19.25
2022-10-23T06:41:18.361Z,16.00
2022-10-23T06:43:47.188Z,15.88
2022-10-23T06:46:13.826Z,19.08
2022-10-23T06:48:41.927Z,15.00
2022-10-23T06:51:10.476Z,16.63
2022-10-23T06:53:37.242Z,19.00
2022-10-23T06:56:04.357Z,18.92
2022-10-23T06:58:31.008Z,16.55
2022-10-23T07:01:01.851Z,16.45
2022-10-23T07:03:28.703Z,17.83
2022-10-23T07:05:55.462Z,17.55
2022-10-23T07:08:22.184Z,17.75
2022-10-23T07:10:48.924Z,19.08
2022-10-23T07:13:15.565Z,20.95
2022-10-23T07:15:42.152Z,17.20
2022-10-23T07:18:14.526Z,15.93
2022-10-23T07:20:41.561Z,20.48
2022-10-23T07:23:08.878Z,18.85
2022-10-23T07:25:35.461Z,19.95
2022-10-23T07:28:02.078Z,17.58
2022-10-23T07:30:28.636Z,17.10
2022-10-23T07:32:55.285Z,18.23
2022-10-23T07:35:22.061Z,18.73
2022-10-23T07:37:48.772Z,18.30
2022-10-23T07:40:15.546Z,16.90
2022-10-23T07:42:42.139Z,16.63
2022-10-23T07:45:09.157Z,18.52
2022-10-23T07:47:35.769Z,16.60
2022-10-23T07:50:02.512Z,20.80
2022-10-23T07:52:32.085Z,16.95
2022-10-23T07:55:01.838Z,17.20
2022-10-23T07:57:28.616Z,16.67
2022-10-23T07:59:55.307Z,13.60
2022-10-23T08:02:21.940Z,15.20
2022-10-23T08:04:49.732Z,12.15
2022-10-23T08:07:16.341Z,13.52
2022-10-23T08:09:42.952Z,12.50
2022-10-23T08:12:09.902Z,14.55
2022-10-23T08:14:36.481Z,12.40
2022-10-23T08:17:05.156Z,15.82
2022-10-23T08:19:32.208Z,13.85
2022-10-23T08:21:58.979Z,14.10
2022-10-23T08:24:25.597Z,13.18
2022-10-23T08:26:52.339Z,11.25
2022-10-23T08:29:18.947Z,11.57
2022-10-23T08:31:45.840Z,12.45
2022-10-23T08:34:12.773Z,10.25
2022-10-23T08:36:39.411Z,8.95
2022-10-23T08:39:06.088Z,10.75
2022-10-23T08:41:37.419Z,9.73
2022-10-23T08:44:15.031Z,10.75
2022-10-23T08:46:43.870Z,11.30
2022-10-23T08:49:41.352Z,7.90
2022-10-23T08:52:16.175Z,8.00
2022-10-23T08:54:53.123Z,8.55
2022-10-23T08:57:19.859Z,8.57
2022-10-23T09:00:14.139Z,7.90
2022-10-23T09:02:48.786Z,7.25
2022-10-23T09:05:30.876Z,7.47
2022-10-23T09:08:09.697Z,6.88
2022-10-23T09:11:18.380Z,7.78
2022-10-23T09:14:08.011Z,7.55
2022-10-23T09:16:44.318Z,8.02
2022-10-23T09:19:16.053Z,8.85
2022-10-23T09:21:44.355Z,7.40
2022-10-23T09:24:22.279Z,8.10
2022-10-23T09:26:51.128Z,8.00
2022-10-23T09:29:32.908Z,8.07
2022-10-23T09:32:00.630Z,6.38
2022-10-23T09:34:29.187Z,7.03
2022-10-23T09:37:00.559Z,6.70
2022-10-23T09:39:31.458Z,6.97
2022-10-23T09:41:58.489Z,7.75
2022-10-23T09:44:27.082Z,8.25
2022-10-23T09:47:05.752Z,7.63
2022-10-23T09:49:33.950Z,8.43
2022-10-23T09:52:01.620Z,7.78
2022-10-23T09:54:29.649Z,5.80
2022-10-23T09:56:56.504Z,10.52
2022-10-23T09:59:30.190Z,7.07
2022-10-23T10:01:58.826Z,6.18
2022-10-23T10:04:36.763Z,7.22
2022-10-23T10:07:04.808Z,6.18
2022-10-23T10:09:31.500Z,5.72
2022-10-23T10:12:09.333Z,7.63
2022-10-23T10:14:45.449Z,8.38
2022-10-23T10:17:20.341Z,6.22
2022-10-23T10:20:29.311Z,6.93
2022-10-23T10:23:33.766Z,5.50
2022-10-23T10:26:08.567Z,6.28
2022-10-23T10:31:12.038Z,4.90
2022-10-23T10:33:42.623Z,5.88
2022-10-23T10:36:40.831Z,5.97
2022-10-23T10:39:47.475Z,6.03
2022-10-23T10:42:29.428Z,4.43
2022-10-23T10:45:08.481Z,5.32
2022-10-23T10:48:00.348Z,5.82
2022-10-23T10:50:31.724Z,5.13
2022-10-23T10:53:07.557Z,6.65
2022-10-23T10:55:38.396Z,5.80
2022-10-23T10:58:26.124Z,4.53
2022-10-23T11:00:56.055Z,6.55
2022-10-23T11:03:42.581Z,4.35
2022-10-23T11:06:14.951Z,6.22
2022-10-23T11:08:56.197Z,5.43
2022-10-23T11:11:27.255Z,4.85
2022-10-23T11:13:55.134Z,5.93
2022-10-23T11:16:31.909Z,4.22
2022-10-23T11:19:11.429Z,4.95
2022-10-23T11:21:44.669Z,6.82
2022-10-23T11:24:20.497Z,4.60
2022-10-23T11:27:02.066Z,4.43
2022-10-23T11:29:51.824Z,5.55
2022-10-23T11:32:43.916Z,4.97
2022-10-23T11:35:48.096Z,4.47
2022-10-23T11:38:30.145Z,6.22
2022-10-23T11:41:04.163Z,4.05
2022-10-23T11:43:58.267Z,5.40
2022-10-23T11:46:38.758Z,5.22
2022-10-23T11:49:06.586Z,3.70
2022-10-23T11:51:37.928Z,5.63
2022-10-23T11:54:26.509Z,5.18
2022-10-23T11:57:10.515Z,5.10
2022-10-23T11:59:49.641Z,5.03
2022-10-23T12:02:24.990Z,4.60
2022-10-23T12:04:52.387Z,6.60
2022-10-23T12:07:33.244Z,4.55
2022-10-23T12:10:07.612Z,7.95
2022-10-23T12:12:42.490Z,4.25
2022-10-23T12:15:11.994Z,3.70
2022-10-23T12:17:39.022Z,3.08
2022-10-23T12:20:08.743Z,3.08
2022-10-23T12:22:51.558Z,4.03
2022-10-23T12:25:23.703Z,3.83
2022-10-23T12:28:00.310Z,4.15
2022-10-23T12:30:49.590Z,3.67
2022-10-23T12:33:42.393Z,4.15
2022-10-23T12:36:42.872Z,4.38
2022-10-23T12:39:39.152Z,3.67
2022-10-23T12:42:11.317Z,4.28
2022-10-23T12:44:38.993Z,3.50
2022-10-23T12:47:05.812Z,5.88
2022-10-23T12:49:33.724Z,4.05
2022-10-23T12:52:01.898Z,3.83
2022-10-23T12:54:28.687Z,4.47
2022-10-23T12:56:55.248Z,6.22
2022-10-23T12:59:26.510Z,5.63
2022-10-23T13:01:54.394Z,6.85
2022-10-23T13:04:23.910Z,5.25
2022-10-23T13:06:50.510Z,4.43
2022-10-23T13:09:38.738Z,3.72
2022-10-23T13:12:05.799Z,4.75
2022-10-23T13:14:38.209Z,3.80
2022-10-23T13:17:08.760Z,4.55
2022-10-23T13:19:35.486Z,3.88
2022-10-23T13:22:04.311Z,4.45
2022-10-23T13:24:31.036Z,4.03
2022-10-23T13:26:58.038Z,2.78
2022-10-23T13:29:31.592Z,3.75
2022-10-23T13:31:58.214Z,4.35
2022-10-23T13:34:31.208Z,3.70
2022-10-23T13:37:00.720Z,4.43
2022-10-23T13:39:36.549Z,3.72
2022-10-23T13:42:11.885Z,3.08
2022-10-23T13:44:38.632Z,5.80
2022-10-23T13:47:05.536Z,3.55
2022-10-23T13:49:32.338Z,4.63
2022-10-23T13:51:59.102Z,3.38
2022-10-23T13:56:55.255Z,2.85
2022-10-23T13:59:22.066Z,4.95
2022-10-23T14:01:49.233Z,4.47
2022-10-23T14:04:16.257Z,4.53
2022-10-23T14:06:42.928Z,3.60
2022-10-23T14:09:14.631Z,3.75
2022-10-23T14:11:41.267Z,3.35
2022-10-23T14:14:08.038Z,4.72
2022-10-23T14:16:34.677Z,4.75
2022-10-23T14:19:01.321Z,4.68
2022-10-23T14:21:27.913Z,3.53
2022-10-23T14:23:54.655Z,4.63
2022-10-23T14:26:23.317Z,5.20
2022-10-23T14:28:52.807Z,5.65
2022-10-23T14:31:19.468Z,5.43
2022-10-23T14:33:46.154Z,4.93
2022-10-23T14:36:12.876Z,4.20
2022-10-23T14:38:39.569Z,4.32
2022-10-23T14:41:13.496Z,4.68
2022-10-23T14:43:40.272Z,4.43
2022-10-23T14:46:14.614Z,4.82
2022-10-23T14:48:44.579Z,4.22
2022-10-23T14:51:27.843Z,4.13
2022-10-23T14:53:58.772Z,8.88
2022-10-23T14:56:26.164Z,8.00
2022-10-23T14:58:52.745Z,4.70
2022-10-23T15:01:19.598Z,4.47
2022-10-23T15:03:46.379Z,7.45
2022-10-23T15:06:17.538Z,6.07
2022-10-23T15:08:44.977Z,4.88
2022-10-23T15:11:12.706Z,7.22
2022-10-23T15:13:39.662Z,6.80
2022-10-23T15:16:08.148Z,5.38
2022-10-23T15:18:39.208Z,3.08
2022-10-23T15:21:06.590Z,4.72
2022-10-23T15:23:34.774Z,3.67
2022-10-23T15:26:03.277Z,4.55
2022-10-23T15:28:30.240Z,9.95
2022-10-23T15:30:56.915Z,6.38
2022-10-23T15:33:23.606Z,4.18
2022-10-23T15:35:50.776Z,5.35
2022-10-23T15:38:17.612Z,6.15
2022-10-23T15:40:45.762Z,3.55
2022-10-23T15:43:13.273Z,3.78
2022-10-23T15:45:40.129Z,4.18
2022-10-23T15:48:07.241Z,5.25
2022-10-23T15:50:34.120Z,4.13
2022-10-23T15:53:00.860Z,5.85
2022-10-23T15:55:27.544Z,4.18
2022-10-23T15:57:54.740Z,5.82
2022-10-23T16:00:21.530Z,5.93
2022-10-23T16:02:48.254Z,4.25
2022-10-23T16:05:17.417Z,10.65
2022-10-23T16:07:44.049Z,7.57
2022-10-23T16:10:10.642Z,5.78
2022-10-23T16:12:37.342Z,7.80
2022-10-23T16:15:04.147Z,10.13
2022-10-23T16:17:30.716Z,7.75
2022-10-23T16:19:57.315Z,9.57
2022-10-23T16:22:23.975Z,7.28
2022-10-23T16:24:50.553Z,8.00
2022-10-23T16:27:17.316Z,5.53
2022-10-23T16:29:44.026Z,4.10
2022-10-23T16:32:10.775Z,3.65
2022-10-23T16:34:37.617Z,4.85
2022-10-23T16:37:04.187Z,5.60
2022-10-23T16:39:31.601Z,6.45
2022-10-23T16:41:58.297Z,5.75
2022-10-23T16:44:24.989Z,6.05
2022-10-23T16:46:51.559Z,5.47
2022-10-23T16:49:18.222Z,4.35
2022-10-23T16:51:45.002Z,5.68
2022-10-23T16:54:11.612Z,4.75
2022-10-23T16:56:38.309Z,5.20
2022-10-23T16:59:05.672Z,6.28
2022-10-23T17:01:33.126Z,5.80
2022-10-23T17:03:59.872Z,7.05
2022-10-23T17:06:30.835Z,6.57
2022-10-23T17:08:57.729Z,5.38
2022-10-23T17:11:25.733Z,4.90
2022-10-23T17:13:59.337Z,6.82
2022-10-23T17:16:37.666Z,9.15
2022-10-23T17:19:15.949Z,8.30
2022-10-23T17:21:47.924Z,9.32
2022-10-23T17:24:14.628Z,11.05
2022-10-23T17:26:41.214Z,7.38
2022-10-23T17:29:09.594Z,5.82
2022-10-23T17:31:38.057Z,6.03
2022-10-23T17:34:06.486Z,7.82
2022-10-23T17:36:35.634Z,5.38
2022-10-23T17:39:02.400Z,8.93
2022-10-23T17:41:29.025Z,6.93
2022-10-23T17:43:56.527Z,6.32
2022-10-23T17:46:23.732Z,5.82
2022-10-23T17:48:50.383Z,8.07
2022-10-23T17:51:21.436Z,6.95
2022-10-23T17:53:51.443Z,8.48
2022-10-23T17:56:22.783Z,4.57
2022-10-23T17:58:50.352Z,5.20
2022-10-23T18:01:18.343Z,7.40
2022-10-23T18:03:45.050Z,6.53
2022-10-23T18:06:38.438Z,5.57
2022-10-23T18:09:05.326Z,6.95
2022-10-23T18:11:34.508Z,5.45
2022-10-23T18:14:01.386Z,6.30
2022-10-23T18:16:28.114Z,8.63
2022-10-23T18:18:55.056Z,5.45
2022-10-23T18:21:23.204Z,5.55
2022-10-23T18:23:50.089Z,4.80
2022-10-23T18:26:17.920Z,4.35
2022-10-23T18:28:48.395Z,4.70
2022-10-23T18:31:15.206Z,4.35
2022-10-23T18:33:41.919Z,6.22
2022-10-23T18:36:22.819Z,5.82
2022-10-23T18:38:49.537Z,5.95
2022-10-23T18:41:16.490Z,5.22
2022-10-23T18:43:44.743Z,6.70
2022-10-23T18:46:12.780Z,7.38
2022-10-23T18:48:39.585Z,4.93
2022-10-23T18:51:32.353Z,5.05
2022-10-23T18:54:00.574Z,7.22
2022-10-23T18:56:27.988Z,6.80
2022-10-23T18:58:56.029Z,8.15
2022-10-23T19:01:22.979Z,7.40
2022-10-23T19:03:49.893Z,9.10
2022-10-23T19:06:16.720Z,6.93
2022-10-23T19:08:43.893Z,6.15
2022-10-23T19:11:10.934Z,10.77
2022-10-23T19:13:39.227Z,9.13
2022-10-23T19:16:12.100Z,7.88
2022-10-23T19:18:38.802Z,8.68
2022-10-23T19:21:06.065Z,7.20
2022-10-23T19:23:36.403Z,7.03
2022-10-23T19:26:09.066Z,9.02
2022-10-23T19:28:37.827Z,6.00
2022-10-23T19:31:04.713Z,5.18
2022-10-23T19:33:32.617Z,5.07
2022-10-23T19:36:01.269Z,5.40
2022-10-23T19:38:32.101Z,6.10
2022-10-23T19:40:58.710Z,6.63
2022-10-23T19:43:25.375Z,6.85
2022-10-23T19:45:52.106Z,5.88
2022-10-23T19:48:18.701Z,6.90
2022-10-23T19:50:45.512Z,6.03
2022-10-23T19:53:12.143Z,5.85
2022-10-23T19:55:38.869Z,6.75
2022-10-23T19:58:05.743Z,5.40
2022-10-23T20:00:32.444Z,5.70
2022-10-23T20:02:59.154Z,6.50
2022-10-23T20:05:25.870Z,9.38
2022-10-23T20:07:52.662Z,6.90
2022-10-23T20:10:19.486Z,5.95
2022-10-23T20:12:56.372Z,6.90
2022-10-23T20:15:23.687Z,6.18
2022-10-23T20:17:50.303Z,4.80
2022-10-23T20:20:17.298Z,6.18
2022-10-23T20:22:44.274Z,6.15
2022-10-23T20:25:11.056Z,6.22
2022-10-23T20:30:09.969Z,4.57
2022-10-23T20:32:36.615Z,5.60
2022-10-23T20:35:03.420Z,5.43
2022-10-23T20:37:30.603Z,6.63
2022-10-23T20:40:04.846Z,4.72
2022-10-23T20:42:31.460Z,6.30
2022-10-23T20:44:58.053Z,4.47
2022-10-23T20:47:24.613Z,7.05
2022-10-23T20:49:51.228Z,5.38
2022-10-23T20:52:17.916Z,6.35
2022-10-23T20:54:44.785Z,4.75
2022-10-23T20:57:11.622Z,5.20
2022-10-23T20:59:38.345Z,6.97
2022-10-23T21:02:05.209Z,5.75
2022-10-23T21:04:32.023Z,6.22
2022-10-23T21:07:14.124Z,4.95
2022-10-23T21:09:40.801Z,5.40
2022-10-23T21:12:07.780Z,6.07
2022-10-23T21:14:34.856Z,5.82
2022-10-23T21:17:01.543Z,5.35
2022-10-23T21:19:28.245Z,5.40
2022-10-23T21:21:55.142Z,6.78
2022-10-23T21:24:21.853Z,7.97
2022-10-23T21:26:48.515Z,5.45
2022-10-23T21:29:19.456Z,5.63
2022-10-23T21:31:59.888Z,6.95
2022-10-23T21:34:27.205Z,7.03
2022-10-23T21:37:12.602Z,5.38
2022-10-23T21:39:39.973Z,8.65
2022-10-23T21:42:06.611Z,6.20
2022-10-23T21:44:33.305Z,5.32
2022-10-23T21:47:00.007Z,6.88
2022-10-23T21:49:26.658Z,5.00
2022-10-23T21:51:55.238Z,8.75
2022-10-23T21:54:21.982Z,8.55
2022-10-23T21:56:50.087Z,6.88
2022-10-23T21:59:18.828Z,6.90
2022-10-23T22:01:46.241Z,5.65
2022-10-23T22:04:17.253Z,5.88
2022-10-23T22:06:44.210Z,6.45
2022-10-23T22:09:12.382Z,7.20
2022-10-23T22:11:39.093Z,8.45
2022-10-23T22:14:05.758Z,4.68
2022-10-23T22:16:32.388Z,6.72
2022-10-23T22:18:59.041Z,6.38
2022-10-23T22:21:26.949Z,6.15
2022-10-23T22:23:54.758Z,8.73
2022-10-23T22:26:25.956Z,7.72
2022-10-23T22:28:53.872Z,7.50
2022-10-23T22:31:22.812Z,7.60
2022-10-23T22:33:49.841Z,8.35
2022-10-23T22:36:16.528Z,6.32
2022-10-23T22:38:43.335Z,8.75
2022-10-23T22:41:10.040Z,7.40
2022-10-23T22:43:36.709Z,11.40
2022-10-23T22:46:08.558Z,6.80
2022-10-23T22:48:35.553Z,8.57
2022-10-23T22:51:02.238Z,7.22
2022-10-23T22:53:28.880Z,6.88
2022-10-23T22:55:55.641Z,8.05
2022-10-23T22:58:22.413Z,7.15
2022-10-23T23:00:49.125Z,11.45
2022-10-23T23:03:16.077Z,8.63
2022-10-23T23:05:47.097Z,9.95
2022-10-23T23:08:14.383Z,7.68
2022-10-23T23:10:41.208Z,8.93
2022-10-23T23:13:07.812Z,8.95
2022-10-23T23:15:39.257Z,9.45
2022-10-23T23:18:05.928Z,10.10
2022-10-23T23:20:32.574Z,9.05
2022-10-23T23:22:59.283Z,9.35
2022-10-23T23:25:26.017Z,8.85
2022-10-23T23:27:52.586Z,9.65
2022-10-23T23:30:19.137Z,9.77
2022-10-23T23:32:47.734Z,8.38
2022-10-23T23:35:14.374Z,12.10
2022-10-23T23:37:40.937Z,8.57
2022-10-23T23:40:08.099Z,10.85
2022-10-23T23:42:34.743Z,9.15
2022-10-23T23:45:13.823Z,10.70
2022-10-23T23:47:41.725Z,8.05
2022-10-23T23:50:09.269Z,8.35
2022-10-23T23:52:35.868Z,9.48
2022-10-23T23:55:02.475Z,8.23
2022-10-23T23:57:29.115Z,7.43
2022-10-23T23:59:55.833Z,7.57
